createdAt,value
2019-03-21T00:00:49.680Z,4.00
2019-03-21T00:01:48.704Z,4.00
2019-03-21T00:02:48.442Z,4.00
2019-03-21T00:03:48.417Z,4.00
2019-03-21T00:04:48.449Z,4.00
2019-03-21T00:05:48.544Z,4.00
2019-03-21T00:06:48.521Z,4.00
2019-03-21T00:07:48.546Z,4.00
2019-03-21T00:08:48.922Z,0.00
2019-03-21T00:10:48.683Z,0.00
2019-03-21T00:11:48.663Z,0.00
2019-03-21T00:12:48.694Z,0.00
2019-03-21T00:13:48.779Z,0.00
2019-03-21T00:14:48.753Z,0.00
2019-03-21T00:15:49.090Z,0.00
2019-03-21T00:16:48.864Z,0.00
2019-03-21T00:17:48.857Z,0.00
2019-03-21T00:18:48.875Z,0.00
2019-03-21T00:19:48.912Z,0.00
2019-03-21T00:20:48.996Z,0.00
2019-03-21T00:21:49.027Z,0.00
2019-03-21T00:22:49.308Z,0.00
2019-03-21T00:23:49.043Z,0.00
2019-03-21T00:24:49.069Z,0.00
2019-03-21T00:25:49.102Z,0.00
2019-03-21T00:26:49.176Z,0.00
2019-03-21T00:27:49.161Z,0.00
2019-03-21T00:28:49.253Z,0.00
2019-03-21T00:29:49.535Z,0.00
2019-03-21T00:30:49.255Z,0.00
2019-03-21T00:31:49.330Z,0.00
2019-03-21T00:32:49.365Z,0.00
2019-03-21T00:33:49.359Z,0.00
2019-03-21T00:34:49.438Z,0.00
2019-03-21T00:35:49.420Z,0.00
2019-03-21T00:36:49.744Z,0.00
2019-03-21T00:37:49.480Z,0.00
2019-03-21T00:38:49.497Z,0.00
2019-03-21T00:40:49.613Z,0.00
2019-03-21T00:41:49.652Z,0.00
2019-03-21T00:42:49.625Z,0.00
2019-03-21T00:43:49.954Z,0.00
2019-03-21T00:44:49.733Z,0.00
2019-03-21T00:45:49.717Z,0.00
2019-03-21T00:46:49.797Z,0.00
2019-03-21T00:47:49.773Z,0.00
2019-03-21T00:48:49.806Z,0.00
2019-03-21T00:49:49.851Z,0.00
2019-03-21T00:50:50.227Z,0.00
2019-03-21T00:51:49.909Z,0.00
2019-03-21T00:52:49.982Z,0.00
2019-03-21T00:53:49.968Z,0.00
2019-03-21T00:54:49.994Z,0.00
2019-03-21T00:55:50.079Z,0.00
2019-03-21T00:56:50.106Z,0.00
2019-03-21T00:57:50.389Z,0.00
2019-03-21T00:58:50.116Z,0.00
2019-03-21T00:59:50.151Z,0.00
2019-03-21T01:00:50.224Z,0.00
2019-03-21T01:01:50.259Z,0.00
2019-03-21T01:02:50.249Z,0.00
2019-03-21T01:03:50.268Z,0.00
2019-03-21T01:04:50.600Z,0.00
2019-03-21T01:05:50.339Z,0.00
2019-03-21T01:06:50.411Z,0.00
2019-03-21T01:07:50.440Z,0.00
2019-03-21T01:08:50.428Z,0.00
2019-03-21T01:09:50.506Z,0.00
2019-03-21T01:10:50.496Z,0.00
2019-03-21T01:11:50.825Z,0.00
2019-03-21T01:12:50.602Z,0.00
2019-03-21T01:13:50.580Z,0.00
2019-03-21T01:14:50.666Z,0.00
2019-03-21T01:15:50.655Z,0.00
2019-03-21T01:16:50.724Z,0.00
2019-03-21T01:18:50.785Z,0.00
2019-03-21T01:19:51.093Z,0.00
2019-03-21T01:20:50.844Z,0.00
2019-03-21T01:21:50.835Z,0.00
2019-03-21T01:22:50.853Z,0.00
2019-03-21T01:23:50.954Z,0.00
2019-03-21T01:24:50.920Z,0.00
2019-03-21T01:25:50.948Z,0.00
2019-03-21T01:26:51.314Z,0.00
2019-03-21T01:27:51.007Z,0.00
2019-03-21T01:28:51.094Z,0.00
2019-03-21T01:29:51.123Z,0.00
2019-03-21T01:30:51.103Z,0.00
2019-03-21T01:31:51.133Z,0.00
2019-03-21T01:32:51.219Z,0.00
2019-03-21T01:33:51.564Z,0.00
2019-03-21T01:34:51.272Z,0.00
2019-03-21T01:35:51.267Z,0.00
2019-03-21T01:36:51.340Z,0.00
2019-03-21T01:37:51.370Z,0.00
2019-03-21T01:38:51.356Z,0.00
2019-03-21T01:39:51.434Z,0.00
2019-03-21T01:40:51.711Z,0.00
2019-03-21T01:41:51.492Z,0.00
2019-03-21T01:42:51.485Z,0.00
2019-03-21T01:43:51.512Z,0.00
2019-03-21T01:44:51.599Z,0.00
2019-03-21T01:45:51.571Z,0.00
2019-03-21T01:46:51.646Z,0.00
2019-03-21T01:47:51.922Z,0.00
2019-03-21T01:48:51.711Z,0.00
2019-03-21T01:49:51.742Z,0.00
2019-03-21T01:50:51.765Z,0.00
2019-03-21T01:51:51.753Z,0.00
2019-03-21T01:52:51.932Z,0.00
2019-03-21T01:53:51.824Z,0.00
2019-03-21T01:54:52.140Z,0.00
2019-03-21T01:55:51.877Z,0.00
2019-03-21T01:56:51.954Z,0.00
2019-03-21T01:57:51.936Z,0.00
2019-03-21T01:58:51.968Z,0.00
2019-03-21T01:59:52.044Z,0.00
2019-03-21T02:00:52.324Z,0.00
2019-03-21T02:01:52.057Z,0.00
2019-03-21T02:02:52.142Z,0.00
2019-03-21T02:03:52.177Z,0.00
2019-03-21T02:05:52.189Z,0.00
2019-03-21T02:06:52.507Z,0.00
2019-03-21T02:07:52.294Z,0.00
2019-03-21T02:08:52.327Z,0.00
2019-03-21T02:09:52.354Z,0.00
2019-03-21T02:10:52.387Z,0.00
2019-03-21T02:11:52.365Z,0.00
2019-03-21T02:12:52.699Z,0.00
2019-03-21T02:13:52.475Z,0.00
2019-03-21T02:14:52.627Z,0.00
2019-03-21T02:15:52.536Z,0.00
2019-03-21T02:16:52.572Z,0.00
2019-03-21T02:17:52.560Z,0.00
2019-03-21T02:18:52.645Z,0.00
2019-03-21T02:19:52.907Z,0.00
2019-03-21T02:20:52.645Z,0.00
2019-03-21T02:21:52.673Z,0.00
2019-03-21T02:22:52.701Z,0.00
2019-03-21T02:23:52.776Z,0.00
2019-03-21T02:24:52.846Z,0.00
2019-03-21T02:25:52.846Z,0.00
2019-03-21T02:26:53.174Z,0.00
2019-03-21T02:27:52.856Z,0.00
2019-03-21T02:28:52.885Z,0.00
2019-03-21T02:30:52.946Z,0.00
2019-03-21T02:31:53.031Z,0.00
2019-03-21T02:32:53.068Z,0.00
2019-03-21T02:33:53.352Z,0.00
2019-03-21T02:34:53.077Z,0.00
2019-03-21T02:35:53.122Z,0.00
2019-03-21T02:36:53.188Z,0.00
2019-03-21T02:37:53.213Z,0.00
2019-03-21T02:38:53.243Z,0.00
2019-03-21T02:39:59.297Z,0.00
2019-03-21T02:40:53.261Z,0.00
2019-03-21T02:41:53.288Z,0.00
2019-03-21T02:42:53.368Z,0.00
2019-03-21T02:43:53.397Z,0.00
2019-03-21T02:45:07.796Z,0.00
2019-03-21T02:45:53.402Z,0.00
2019-03-21T02:46:53.782Z,0.00
2019-03-21T02:47:53.471Z,0.00
2019-03-21T02:48:53.506Z,0.00
2019-03-21T02:49:53.619Z,0.00
2019-03-21T02:50:53.562Z,0.00
2019-03-21T02:51:53.637Z,0.00
2019-03-21T02:52:53.680Z,0.00
2019-03-21T02:53:54.009Z,0.00
2019-03-21T02:54:53.692Z,0.00
2019-03-21T02:57:53.823Z,0.00
2019-03-21T03:00:53.919Z,0.00
2019-03-21T03:01:54.249Z,0.00
2019-03-21T03:03:54.015Z,0.00
2019-03-21T03:04:54.061Z,0.00
2019-03-21T03:05:54.020Z,0.00
2019-03-21T03:08:54.165Z,0.00
2019-03-21T03:13:54.612Z,0.00
2019-03-21T03:14:54.289Z,0.00
2019-03-21T03:15:54.323Z,0.00
2019-03-21T03:16:54.414Z,0.00
2019-03-21T03:17:54.384Z,0.00
2019-03-21T03:18:54.488Z,0.00
2019-03-21T03:19:54.755Z,0.00
2019-03-21T03:20:54.550Z,0.00
2019-03-21T03:21:54.553Z,0.00
2019-03-21T03:22:54.537Z,0.00
2019-03-21T03:23:54.572Z,0.00
2019-03-21T03:24:54.656Z,0.00
2019-03-21T03:25:54.927Z,0.00
2019-03-21T03:27:54.695Z,0.00
2019-03-21T03:28:54.774Z,0.00
2019-03-21T03:29:54.753Z,0.00
2019-03-21T03:30:54.837Z,0.00
2019-03-21T03:31:54.875Z,0.00
2019-03-21T03:32:55.216Z,0.00
2019-03-21T03:33:54.873Z,0.00
2019-03-21T03:34:54.904Z,0.00
2019-03-21T03:35:54.937Z,0.00
2019-03-21T03:36:54.965Z,0.00
2019-03-21T03:37:55.049Z,0.00
2019-03-21T03:38:55.072Z,0.00
2019-03-21T03:39:55.361Z,0.00
2019-03-21T03:40:55.136Z,0.00
2019-03-21T03:41:55.171Z,0.00
2019-03-21T03:42:55.144Z,0.00
2019-03-21T03:43:55.202Z,0.00
2019-03-21T03:44:55.265Z,0.00
2019-03-21T03:45:55.289Z,0.00
2019-03-21T03:46:55.573Z,0.00
2019-03-21T03:47:55.313Z,0.00
2019-03-21T03:48:55.385Z,0.00
2019-03-21T03:49:55.412Z,0.00
2019-03-21T03:50:55.392Z,0.00
2019-03-21T03:51:55.477Z,0.00
2019-03-21T03:52:55.450Z,0.00
2019-03-21T03:53:55.787Z,0.00
2019-03-21T03:54:55.512Z,0.00
2019-03-21T03:55:55.607Z,0.00
2019-03-21T03:57:55.615Z,0.00
2019-03-21T03:58:55.640Z,0.00
2019-03-21T03:59:55.663Z,0.00
2019-03-21T04:00:56.059Z,0.00
2019-03-21T04:01:55.778Z,0.00
2019-03-21T04:02:55.761Z,0.00
2019-03-21T04:03:55.846Z,0.00
2019-03-21T04:04:55.886Z,0.00
2019-03-21T04:05:55.855Z,0.00
2019-03-21T04:06:55.879Z,0.00
2019-03-21T04:07:56.274Z,0.00
2019-03-21T04:08:55.945Z,0.00
2019-03-21T04:09:56.044Z,0.00
2019-03-21T04:10:56.000Z,0.00
2019-03-21T04:11:56.038Z,0.00
2019-03-21T04:12:56.061Z,0.00
2019-03-21T04:13:56.146Z,0.00
2019-03-21T04:14:56.423Z,0.00
2019-03-21T04:15:56.157Z,0.00
2019-03-21T04:16:56.233Z,0.00
2019-03-21T04:17:56.216Z,0.00
2019-03-21T04:18:56.300Z,0.00
2019-03-21T04:19:56.272Z,0.00
2019-03-21T04:20:56.363Z,0.00
2019-03-21T04:21:56.683Z,0.00
2019-03-21T04:22:56.375Z,0.00
2019-03-21T04:23:59.489Z,0.00
2019-03-21T04:24:56.476Z,0.00
2019-03-21T04:25:56.505Z,0.00
2019-03-21T04:26:56.489Z,0.00
2019-03-21T04:27:56.566Z,0.00
2019-03-21T04:28:56.903Z,0.00
2019-03-21T04:29:56.580Z,0.00
2019-03-21T04:30:56.607Z,0.00
2019-03-21T04:31:56.690Z,0.00
2019-03-21T04:32:56.671Z,0.00
2019-03-21T04:33:56.711Z,0.00
2019-03-21T04:35:56.770Z,0.00
2019-03-21T04:37:57.176Z,0.00
2019-03-21T04:39:56.933Z,0.00
2019-03-21T04:40:56.964Z,0.00
2019-03-21T04:41:56.994Z,0.00
2019-03-21T04:42:56.972Z,0.00
2019-03-21T04:43:57.001Z,0.00
2019-03-21T04:44:57.389Z,0.00
2019-03-21T04:46:03.259Z,0.00
2019-03-21T04:46:57.105Z,0.00
2019-03-21T04:47:57.177Z,0.00
2019-03-21T04:48:57.307Z,0.00
2019-03-21T04:49:57.236Z,0.00
2019-03-21T04:50:57.220Z,0.00
2019-03-21T04:51:57.548Z,0.00
2019-03-21T04:53:57.358Z,0.00
2019-03-21T04:54:57.348Z,0.00
2019-03-21T04:55:57.414Z,0.00
2019-03-21T04:56:57.453Z,0.00
2019-03-21T04:58:57.814Z,0.00
2019-03-21T04:59:57.545Z,0.00
2019-03-21T05:00:57.672Z,0.00
2019-03-21T05:01:57.597Z,0.00
2019-03-21T05:02:57.593Z,0.00
2019-03-21T05:03:57.614Z,0.00
2019-03-21T05:04:57.637Z,0.00
2019-03-21T05:05:58.036Z,0.00
2019-03-21T05:06:57.707Z,0.00
2019-03-21T05:07:58.092Z,0.00
2019-03-21T05:08:58.127Z,0.00
2019-03-21T05:09:57.792Z,0.00
2019-03-21T05:10:57.870Z,0.00
2019-03-21T05:11:57.892Z,0.00
2019-03-21T05:12:58.238Z,0.00
2019-03-21T05:13:57.910Z,4.00
2019-03-21T05:15:58.021Z,4.00
2019-03-21T05:16:58.059Z,4.00
2019-03-21T05:17:58.089Z,4.00
2019-03-21T05:18:58.076Z,4.00
2019-03-21T05:19:58.444Z,8.00
2019-03-21T05:20:58.177Z,8.00
2019-03-21T05:21:58.162Z,12.00
2019-03-21T05:22:58.188Z,12.00
2019-03-21T05:23:58.275Z,12.00
2019-03-21T05:24:58.300Z,16.00
2019-03-21T05:25:58.279Z,20.00
2019-03-21T05:26:58.604Z,20.00
2019-03-21T05:27:58.342Z,24.00
2019-03-21T05:28:58.442Z,28.00
2019-03-21T05:29:58.447Z,32.00
2019-03-21T05:30:58.435Z,36.00
2019-03-21T05:31:58.614Z,40.00
2019-03-21T05:32:58.547Z,44.00
2019-03-21T05:33:58.825Z,48.00
2019-03-21T05:34:58.630Z,56.00
2019-03-21T05:35:58.585Z,56.00
2019-03-21T05:36:58.704Z,60.00
2019-03-21T05:37:58.647Z,72.00
2019-03-21T05:38:58.678Z,76.00
2019-03-21T05:39:58.757Z,84.00
2019-03-21T05:40:59.032Z,92.00
2019-03-21T05:41:58.759Z,96.00
2019-03-21T05:42:58.805Z,108.00
2019-03-21T05:43:58.878Z,116.00
2019-03-21T05:44:58.929Z,124.00
2019-03-21T05:45:58.888Z,132.00
2019-03-21T05:46:58.965Z,140.00
2019-03-21T05:47:59.292Z,156.00
2019-03-21T05:48:59.028Z,164.00
2019-03-21T05:49:59.050Z,172.00
2019-03-21T05:50:59.032Z,184.00
2019-03-21T05:51:59.070Z,196.00
2019-03-21T05:52:59.442Z,204.00
2019-03-21T05:53:59.172Z,216.00
2019-03-21T05:54:59.158Z,224.00
2019-03-21T05:55:59.239Z,236.00
2019-03-21T05:56:59.571Z,244.00
2019-03-21T05:57:59.257Z,260.00
2019-03-21T05:59:00.028Z,264.00
2019-03-21T05:59:59.363Z,276.00
2019-03-21T06:00:59.635Z,288.00
2019-03-21T06:01:59.519Z,296.00
2019-03-21T06:02:59.451Z,308.00
2019-03-21T06:03:59.478Z,316.00
2019-03-21T06:04:59.509Z,328.00
2019-03-21T06:05:59.483Z,340.00
2019-03-21T06:06:59.974Z,356.00
2019-03-21T06:07:59.543Z,368.00
2019-03-21T06:08:59.575Z,384.00
2019-03-21T06:09:59.603Z,396.00
2019-03-21T06:10:59.743Z,408.00
2019-03-21T06:12:00.022Z,416.00
2019-03-21T06:13:00.052Z,428.00
2019-03-21T06:13:59.783Z,436.00
2019-03-21T06:14:59.808Z,444.00
2019-03-21T06:15:59.793Z,456.00
2019-03-21T06:16:59.871Z,460.00
2019-03-21T06:17:59.852Z,472.00
2019-03-21T06:18:59.890Z,476.00
2019-03-21T06:19:59.964Z,484.00
2019-03-21T06:21:01.552Z,488.00
2019-03-21T06:21:59.977Z,496.00
2019-03-21T06:23:00.006Z,512.00
2019-03-21T06:24:00.041Z,520.00
2019-03-21T06:25:00.119Z,524.00
2019-03-21T06:26:00.396Z,532.00
2019-03-21T06:27:00.176Z,544.00
2019-03-21T06:28:00.207Z,552.00
2019-03-21T06:29:00.233Z,560.00
2019-03-21T06:30:00.435Z,568.00
2019-03-21T06:31:00.243Z,576.00
2019-03-21T06:32:00.333Z,584.00
2019-03-21T06:33:00.772Z,592.00
2019-03-21T06:34:00.337Z,600.00
2019-03-21T06:35:00.383Z,604.00
2019-03-21T06:36:00.456Z,612.00
2019-03-21T06:37:00.435Z,620.00
2019-03-21T06:38:00.537Z,624.00
2019-03-21T06:39:00.495Z,632.00
2019-03-21T06:40:00.816Z,636.00
2019-03-21T06:41:00.600Z,636.00
2019-03-21T06:42:00.945Z,644.00
2019-03-21T06:43:00.664Z,640.00
2019-03-21T06:44:00.693Z,648.00
2019-03-21T06:45:00.722Z,652.00
2019-03-21T06:46:00.705Z,652.00
2019-03-21T06:47:01.035Z,648.00
2019-03-21T06:48:00.771Z,636.00
2019-03-21T06:49:00.847Z,632.00
2019-03-21T06:50:00.874Z,632.00
2019-03-21T06:51:00.864Z,644.00
2019-03-21T06:52:00.933Z,652.00
2019-03-21T06:53:03.222Z,660.00
2019-03-21T06:54:01.244Z,672.00
2019-03-21T06:55:00.974Z,684.00
2019-03-21T06:56:01.001Z,700.00
2019-03-21T06:57:02.552Z,712.00
2019-03-21T06:58:01.116Z,720.00
2019-03-21T06:59:01.144Z,724.00
2019-03-21T07:00:01.124Z,732.00
2019-03-21T07:01:01.503Z,740.00
2019-03-21T07:02:01.193Z,744.00
2019-03-21T07:03:01.263Z,752.00
2019-03-21T07:04:06.992Z,760.00
2019-03-21T07:05:01.332Z,764.00
2019-03-21T07:06:01.302Z,772.00
2019-03-21T07:07:08.050Z,772.00
2019-03-21T07:08:01.718Z,764.00
2019-03-21T07:09:01.443Z,772.00
2019-03-21T07:10:01.422Z,764.00
2019-03-21T07:11:01.457Z,768.00
2019-03-21T07:12:01.491Z,764.00
2019-03-21T07:13:01.581Z,764.00
2019-03-21T07:14:01.611Z,772.00
2019-03-21T07:15:04.394Z,788.00
2019-03-21T07:16:01.605Z,796.00
2019-03-21T07:17:01.704Z,824.00
2019-03-21T07:18:01.717Z,832.00
2019-03-21T07:19:01.705Z,840.00
2019-03-21T07:20:01.795Z,848.00
2019-03-21T07:21:01.818Z,856.00
2019-03-21T07:22:01.790Z,864.00
2019-03-21T07:23:01.880Z,868.00
2019-03-21T07:24:01.855Z,872.00
2019-03-21T07:25:01.945Z,880.00
2019-03-21T07:26:01.921Z,884.00
2019-03-21T07:27:01.946Z,896.00
2019-03-21T07:28:02.272Z,900.00
2019-03-21T07:29:02.066Z,908.00
2019-03-21T07:30:02.039Z,912.00
2019-03-21T07:31:02.063Z,916.00
2019-03-21T07:32:02.096Z,920.00
2019-03-21T07:33:02.179Z,924.00
2019-03-21T07:34:02.456Z,928.00
2019-03-21T07:36:02.384Z,936.00
2019-03-21T07:37:02.301Z,940.00
2019-03-21T07:38:02.339Z,940.00
2019-03-21T07:39:02.362Z,944.00
2019-03-21T07:40:02.666Z,948.00
2019-03-21T07:41:02.371Z,948.00
2019-03-21T07:42:02.454Z,948.00
2019-03-21T07:43:02.434Z,952.00
2019-03-21T07:44:02.517Z,956.00
2019-03-21T07:45:02.543Z,956.00
2019-03-21T07:46:02.574Z,956.00
2019-03-21T07:47:12.104Z,960.00
2019-03-21T07:48:05.072Z,964.00
2019-03-21T07:49:02.665Z,960.00
2019-03-21T07:50:02.654Z,960.00
2019-03-21T07:51:02.731Z,964.00
2019-03-21T07:52:02.704Z,964.00
2019-03-21T07:53:03.045Z,964.00
2019-03-21T07:54:02.829Z,964.00
2019-03-21T07:55:02.804Z,968.00
2019-03-21T07:56:02.886Z,964.00
2019-03-21T07:57:02.913Z,964.00
2019-03-21T07:58:02.896Z,964.00
2019-03-21T07:59:02.975Z,968.00
2019-03-21T08:00:03.055Z,968.00
2019-03-21T08:01:03.226Z,968.00
2019-03-21T08:02:03.059Z,972.00
2019-03-21T08:03:03.089Z,976.00
2019-03-21T08:04:03.341Z,976.00
2019-03-21T08:05:03.102Z,980.00
2019-03-21T08:06:03.431Z,980.00
2019-03-21T08:07:03.174Z,984.00
2019-03-21T08:08:03.244Z,984.00
2019-03-21T08:09:03.225Z,988.00
2019-03-21T08:10:03.404Z,996.00
2019-03-21T08:11:03.333Z,996.00
2019-03-21T08:12:03.317Z,996.00
2019-03-21T08:13:03.652Z,996.00
2019-03-21T08:14:03.475Z,1004.00
2019-03-21T08:15:03.412Z,1000.00
2019-03-21T08:16:03.439Z,1008.00
2019-03-21T08:17:03.531Z,1016.00
2019-03-21T08:18:03.502Z,1028.00
2019-03-21T08:19:03.584Z,1028.00
2019-03-21T08:20:03.871Z,1036.00
2019-03-21T08:21:03.667Z,1032.00
2019-03-21T08:22:03.676Z,1036.00
2019-03-21T08:23:03.665Z,1020.00
2019-03-21T08:24:03.740Z,1040.00
2019-03-21T08:25:03.763Z,1040.00
2019-03-21T08:26:04.046Z,1044.00
2019-03-21T08:27:03.783Z,1036.00
2019-03-21T08:28:03.812Z,1028.00
2019-03-21T08:29:03.892Z,1028.00
2019-03-21T08:30:03.925Z,1028.00
2019-03-21T08:31:04.004Z,1052.00
2019-03-21T08:32:03.935Z,1068.00
2019-03-21T08:33:04.017Z,1072.00
2019-03-21T08:34:03.998Z,1080.00
2019-03-21T08:35:04.081Z,1084.00
2019-03-21T08:36:04.054Z,1092.00
2019-03-21T08:38:04.172Z,1112.00
2019-03-21T08:39:04.149Z,1104.00
2019-03-21T08:40:04.176Z,1112.00
2019-03-21T08:41:04.263Z,1116.00
2019-03-21T08:42:04.234Z,1116.00
2019-03-21T08:43:04.317Z,1116.00
2019-03-21T08:44:04.352Z,1120.00
2019-03-21T08:45:04.635Z,1124.00
2019-03-21T08:46:04.365Z,1136.00
2019-03-21T08:47:04.395Z,1128.00
2019-03-21T08:48:04.426Z,1136.00
2019-03-21T08:49:04.504Z,1144.00
2019-03-21T08:50:04.541Z,1152.00
2019-03-21T08:51:08.702Z,1100.00
2019-03-21T08:52:04.848Z,1088.00
2019-03-21T08:53:04.635Z,1144.00
2019-03-21T08:54:04.665Z,1160.00
2019-03-21T08:56:04.828Z,1144.00
2019-03-21T08:57:04.752Z,1132.00
2019-03-21T08:58:04.779Z,1172.00
2019-03-21T08:59:05.062Z,1172.00
2019-03-21T09:00:04.801Z,1164.00
2019-03-21T09:01:04.873Z,1160.00
2019-03-21T09:02:04.908Z,1168.00
2019-03-21T09:03:04.885Z,1184.00
2019-03-21T09:04:04.920Z,1200.00
2019-03-21T09:05:04.999Z,1204.00
2019-03-21T09:06:05.276Z,1208.00
2019-03-21T09:07:05.063Z,1208.00
2019-03-21T09:08:05.052Z,1216.00
2019-03-21T09:09:05.123Z,1220.00
2019-03-21T09:10:05.102Z,1224.00
2019-03-21T09:11:05.202Z,1228.00
2019-03-21T09:12:05.212Z,1232.00
2019-03-21T09:13:05.501Z,1236.00
2019-03-21T09:14:05.224Z,1240.00
2019-03-21T09:15:05.255Z,1240.00
2019-03-21T09:16:05.287Z,1232.00
2019-03-21T09:17:05.474Z,1244.00
2019-03-21T09:18:05.450Z,1248.00
2019-03-21T09:19:05.391Z,1252.00
2019-03-21T09:20:05.763Z,1260.00
2019-03-21T09:21:05.451Z,1264.00
2019-03-21T09:22:05.480Z,1260.00
2019-03-21T09:23:05.655Z,1252.00
2019-03-21T09:24:05.585Z,1244.00
2019-03-21T09:25:05.620Z,1240.00
2019-03-21T09:26:05.608Z,1216.00
2019-03-21T09:27:05.930Z,1232.00
2019-03-21T09:28:05.713Z,1252.00
2019-03-21T09:29:05.762Z,1256.00
2019-03-21T09:30:06.380Z,1256.00
2019-03-21T09:31:05.782Z,1252.00
2019-03-21T09:32:05.870Z,1252.00
2019-03-21T09:34:05.852Z,1244.00
2019-03-21T09:35:06.240Z,1240.00
2019-03-21T09:36:06.006Z,1232.00
2019-03-21T09:37:05.997Z,1224.00
2019-03-21T09:38:06.029Z,1216.00
2019-03-21T09:39:06.007Z,1208.00
2019-03-21T09:40:06.032Z,1184.00
2019-03-21T09:41:06.067Z,1176.00
2019-03-21T09:42:06.393Z,1188.00
2019-03-21T09:44:06.221Z,1220.00
2019-03-21T09:45:06.201Z,1204.00
2019-03-21T09:46:06.219Z,1208.00
2019-03-21T09:47:06.250Z,1208.00
2019-03-21T09:48:06.330Z,1208.00
2019-03-21T09:49:06.622Z,1204.00
2019-03-21T09:50:06.344Z,1204.00
2019-03-21T09:51:06.431Z,1228.00
2019-03-21T09:52:06.427Z,1236.00
2019-03-21T09:53:06.498Z,1208.00
2019-03-21T09:54:09.864Z,1200.00
2019-03-21T09:55:06.499Z,1200.00
2019-03-21T09:56:06.834Z,1200.00
2019-03-21T09:57:06.569Z,1196.00
2019-03-21T09:58:06.599Z,1200.00
2019-03-21T09:59:06.683Z,1200.00
2019-03-21T10:00:06.665Z,1208.00
2019-03-21T10:01:06.745Z,1208.00
2019-03-21T10:02:06.769Z,1208.00
2019-03-21T10:03:07.126Z,1208.00
2019-03-21T10:04:06.784Z,1208.00
2019-03-21T10:05:06.876Z,1208.00
2019-03-21T10:06:07.007Z,1212.00
2019-03-21T10:07:06.933Z,1212.00
2019-03-21T10:08:06.959Z,1216.00
2019-03-21T10:09:06.944Z,1220.00
2019-03-21T10:10:07.019Z,1220.00
2019-03-21T10:11:07.005Z,1224.00
2019-03-21T10:12:07.084Z,1228.00
2019-03-21T10:13:07.114Z,1228.00
2019-03-21T10:14:07.100Z,1228.00
2019-03-21T10:15:07.124Z,1232.00
2019-03-21T10:16:07.456Z,1240.00
2019-03-21T10:17:07.274Z,1248.00
2019-03-21T10:18:07.278Z,1248.00
2019-03-21T10:19:07.254Z,1248.00
2019-03-21T10:20:07.636Z,1252.00
2019-03-21T10:21:07.674Z,1260.00
2019-03-21T10:22:07.651Z,1268.00
2019-03-21T10:23:07.376Z,1272.00
2019-03-21T10:24:07.562Z,1264.00
2019-03-21T10:25:07.488Z,1268.00
2019-03-21T10:26:07.466Z,1272.00
2019-03-21T10:27:07.555Z,1280.00
2019-03-21T10:28:07.838Z,1284.00
2019-03-21T10:29:07.571Z,1280.00
2019-03-21T10:30:07.597Z,1276.00
2019-03-21T10:31:07.678Z,1280.00
2019-03-21T10:32:14.172Z,1292.00
2019-03-21T10:33:07.741Z,1292.00
2019-03-21T10:34:08.076Z,1296.00
2019-03-21T10:36:07.835Z,1296.00
2019-03-21T10:37:07.814Z,1296.00
2019-03-21T10:38:07.844Z,1304.00
2019-03-21T10:39:07.880Z,1312.00
2019-03-21T10:40:07.908Z,1312.00
2019-03-21T10:41:08.315Z,1316.00
2019-03-21T10:42:08.035Z,1324.00
2019-03-21T10:43:10.434Z,1328.00
2019-03-21T10:44:08.032Z,1336.00
2019-03-21T10:45:08.118Z,1340.00
2019-03-21T10:46:08.145Z,1336.00
2019-03-21T10:47:08.130Z,1340.00
2019-03-21T10:48:08.470Z,1348.00
2019-03-21T10:49:08.243Z,1348.00
2019-03-21T10:50:08.234Z,1352.00
2019-03-21T10:51:08.312Z,1352.00
2019-03-21T10:52:08.451Z,1360.00
2019-03-21T10:53:08.336Z,1364.00
2019-03-21T10:54:08.424Z,1368.00
2019-03-21T10:55:08.393Z,1372.00
2019-03-21T10:56:08.474Z,1376.00
2019-03-21T10:57:08.876Z,1380.00
2019-03-21T10:58:08.480Z,1384.00
2019-03-21T10:59:08.503Z,1392.00
2019-03-21T11:00:08.596Z,1408.00
2019-03-21T11:01:08.920Z,1416.00
2019-03-21T11:02:08.621Z,1424.00
2019-03-21T11:03:08.690Z,1432.00
2019-03-21T11:04:08.685Z,1440.00
2019-03-21T11:05:08.703Z,1444.00
2019-03-21T11:06:08.736Z,1440.00
2019-03-21T11:07:08.773Z,1444.00
2019-03-21T11:08:09.100Z,1448.00
2019-03-21T11:09:08.877Z,1456.00
2019-03-21T11:10:08.879Z,1468.00
2019-03-21T11:11:08.936Z,1484.00
2019-03-21T11:12:08.915Z,1496.00
2019-03-21T11:13:08.997Z,1500.00
2019-03-21T11:14:08.984Z,1512.00
2019-03-21T11:15:09.321Z,1520.00
2019-03-21T11:16:09.108Z,1524.00
2019-03-21T11:17:09.081Z,1528.00
2019-03-21T11:18:09.118Z,1532.00
2019-03-21T11:19:09.267Z,1540.00
2019-03-21T11:20:09.225Z,1544.00
2019-03-21T11:21:09.254Z,1552.00
2019-03-21T11:22:09.588Z,1556.00
2019-03-21T11:23:09.269Z,1564.00
2019-03-21T11:24:09.349Z,1572.00
2019-03-21T11:25:09.375Z,1576.00
2019-03-21T11:26:09.358Z,1580.00
2019-03-21T11:27:09.391Z,1584.00
2019-03-21T11:28:09.490Z,1588.00
2019-03-21T11:29:09.508Z,1588.00
2019-03-21T11:30:15.927Z,1596.00
2019-03-21T11:31:09.514Z,1596.00
2019-03-21T11:32:09.620Z,1604.00
2019-03-21T11:33:09.588Z,1608.00
2019-03-21T11:34:09.621Z,1612.00
2019-03-21T11:35:09.996Z,1612.00
2019-03-21T11:36:09.841Z,1608.00
2019-03-21T11:37:09.708Z,1604.00
2019-03-21T11:38:09.793Z,1608.00
2019-03-21T11:39:09.836Z,1612.00
2019-03-21T11:40:10.162Z,1612.00
2019-03-21T11:41:12.649Z,1616.00
2019-03-21T11:42:09.863Z,1612.00
2019-03-21T11:43:11.024Z,1620.00
2019-03-21T11:44:09.939Z,1636.00
2019-03-21T11:45:09.966Z,1640.00
2019-03-21T11:46:10.117Z,1644.00
2019-03-21T11:47:10.139Z,1648.00
2019-03-21T11:48:10.455Z,1656.00
2019-03-21T11:49:10.148Z,1664.00
2019-03-21T11:50:10.137Z,1672.00
2019-03-21T11:51:10.161Z,1676.00
2019-03-21T11:52:18.274Z,1692.00
2019-03-21T11:53:10.279Z,1696.00
2019-03-21T11:54:10.550Z,1708.00
2019-03-21T11:55:10.335Z,1720.00
2019-03-21T11:56:12.891Z,1724.00
2019-03-21T11:57:10.412Z,1736.00
2019-03-21T11:58:10.425Z,1748.00
2019-03-21T11:59:10.410Z,1764.00
2019-03-21T12:00:10.488Z,1772.00
2019-03-21T12:01:10.832Z,1784.00
2019-03-21T12:02:10.552Z,1792.00
2019-03-21T12:03:10.542Z,1808.00
2019-03-21T12:04:10.568Z,1820.00
2019-03-21T12:05:10.653Z,1828.00
2019-03-21T12:06:10.779Z,1840.00
2019-03-21T12:07:10.662Z,1852.00
2019-03-21T12:08:10.700Z,1860.00
2019-03-21T12:09:10.780Z,1868.00
2019-03-21T12:10:10.909Z,1876.00
2019-03-21T12:11:10.839Z,1884.00
2019-03-21T12:12:10.831Z,1896.00
2019-03-21T12:13:10.850Z,1908.00
2019-03-21T12:14:11.236Z,1920.00
2019-03-21T12:15:10.920Z,1924.00
2019-03-21T12:16:11.002Z,1940.00
2019-03-21T12:17:12.900Z,1952.00
2019-03-21T12:18:11.011Z,1964.00
2019-03-21T12:19:11.047Z,1980.00
2019-03-21T12:20:11.127Z,1988.00
2019-03-21T12:21:11.409Z,2000.00
2019-03-21T12:22:11.185Z,2008.00
2019-03-21T12:23:11.176Z,2024.00
2019-03-21T12:24:11.207Z,2032.00
2019-03-21T12:25:11.292Z,2044.00
2019-03-21T12:26:11.315Z,2056.00
2019-03-21T12:27:11.451Z,2068.00
2019-03-21T12:28:11.383Z,2084.00
2019-03-21T12:29:11.419Z,2092.00
2019-03-21T12:30:11.396Z,2108.00
2019-03-21T12:31:11.478Z,2112.00
2019-03-21T12:32:11.520Z,2124.00
2019-03-21T12:33:11.502Z,2124.00
2019-03-21T12:34:11.875Z,2140.00
2019-03-21T12:35:11.731Z,2152.00
2019-03-21T12:36:11.639Z,2160.00
2019-03-21T12:37:11.671Z,2168.00
2019-03-21T12:38:11.704Z,2180.00
2019-03-21T12:39:11.741Z,2192.00
2019-03-21T12:40:12.066Z,2208.00
2019-03-21T12:41:11.806Z,2224.00
2019-03-21T12:42:11.843Z,2240.00
2019-03-21T12:43:11.808Z,2260.00
2019-03-21T12:44:11.854Z,2280.00
2019-03-21T12:45:11.943Z,2304.00
2019-03-21T12:46:12.211Z,2320.00
2019-03-21T12:47:11.954Z,2336.00
2019-03-21T12:48:11.970Z,2356.00
2019-03-21T12:49:12.162Z,2372.00
2019-03-21T12:50:12.035Z,2380.00
2019-03-21T12:51:12.280Z,2392.00
2019-03-21T12:52:12.157Z,2400.00
2019-03-21T12:53:12.191Z,2404.00
2019-03-21T12:55:12.244Z,2416.00
2019-03-21T12:56:12.233Z,2428.00
2019-03-21T12:57:12.323Z,2444.00
2019-03-21T12:58:12.348Z,2520.00
2019-03-21T12:59:12.375Z,2628.00
2019-03-21T13:00:12.360Z,2704.00
2019-03-21T13:01:12.392Z,2772.00
2019-03-21T13:02:12.424Z,2864.00
2019-03-21T13:03:12.509Z,3000.00
2019-03-21T13:04:12.789Z,3172.00
2019-03-21T13:05:12.577Z,3704.00
2019-03-21T13:06:12.557Z,4612.00
2019-03-21T13:07:12.585Z,5060.00
2019-03-21T13:08:12.673Z,5312.00
2019-03-21T13:10:12.682Z,6268.00
2019-03-21T13:11:12.719Z,6684.00